sensor_id;sensor_type;location;lat;lon;timestamp;P1;durP1;ratioP1;P2;durP2;ratioP2
53313;SDS011;39202;51.468;7.146;2022-12-18T00:03:04;3.08;;;2.88;;
53313;SDS011;39202;51.468;7.146;2022-12-18T00:08:06;3.38;;;3.08;;
53313;SDS011;39202;51.468;7.146;2022-12-18T00:13:08;3.40;;;3.10;;
53313;SDS011;39202;51.468;7.146;2022-12-18T00:18:11;3.05;;;2.85;;
53313;SDS011;39202;51.468;7.146;2022-12-18T00:23:13;3.40;;;3.10;;
53313;SDS011;39202;51.468;7.146;2022-12-18T00:28:14;3.47;;;3.17;;
53313;SDS011;39202;51.468;7.146;2022-12-18T00:33:17;3.00;;;2.80;;
53313;SDS011;39202;51.468;7.146;2022-12-18T00:38:19;3.20;;;2.90;;
53313;SDS011;39202;51.468;7.146;2022-12-18T00:43:21;3.15;;;2.95;;
53313;SDS011;39202;51.468;7.146;2022-12-18T00:48:24;3.25;;;3.03;;
53313;SDS011;39202;51.468;7.146;2022-12-18T00:53:26;2.95;;;2.75;;
53313;SDS011;39202;51.468;7.146;2022-12-18T00:58:27;2.92;;;2.72;;
53313;SDS011;39202;51.468;7.146;2022-12-18T01:03:30;2.92;;;2.72;;
53313;SDS011;39202;51.468;7.146;2022-12-18T01:08:32;3.00;;;2.80;;
53313;SDS011;39202;51.468;7.146;2022-12-18T01:13:34;2.97;;;2.78;;
53313;SDS011;39202;51.468;7.146;2022-12-18T01:18:37;2.88;;;2.67;;
53313;SDS011;39202;51.468;7.146;2022-12-18T01:23:39;2.80;;;2.60;;
53313;SDS011;39202;51.468;7.146;2022-12-18T01:28:41;2.92;;;2.72;;
53313;SDS011;39202;51.468;7.146;2022-12-18T01:33:45;3.08;;;2.88;;
53313;SDS011;39202;51.468;7.146;2022-12-18T01:38:47;2.92;;;2.63;;
53313;SDS011;39202;51.468;7.146;2022-12-18T01:43:50;2.80;;;2.60;;
53313;SDS011;39202;51.468;7.146;2022-12-18T01:48:55;2.90;;;2.70;;
53313;SDS011;39202;51.468;7.146;2022-12-18T01:53:58;2.72;;;2.53;;
53313;SDS011;39202;51.468;7.146;2022-12-18T01:59:01;2.58;;;2.42;;
53313;SDS011;39202;51.468;7.146;2022-12-18T02:04:19;3.00;;;2.80;;
53313;SDS011;39202;51.468;7.146;2022-12-18T02:09:23;2.88;;;2.67;;
53313;SDS011;39202;51.468;7.146;2022-12-18T02:14:31;2.78;;;2.58;;
53313;SDS011;39202;51.468;7.146;2022-12-18T02:19:43;2.90;;;2.70;;
53313;SDS011;39202;51.468;7.146;2022-12-18T02:24:54;2.45;;;2.35;;
53313;SDS011;39202;51.468;7.146;2022-12-18T02:30:06;2.60;;;2.47;;
53313;SDS011;39202;51.468;7.146;2022-12-18T02:35:12;2.88;;;2.67;;
53313;SDS011;39202;51.468;7.146;2022-12-18T02:40:16;2.67;;;2.50;;
53313;SDS011;39202;51.468;7.146;2022-12-18T02:45:20;2.92;;;2.72;;
53313;SDS011;39202;51.468;7.146;2022-12-18T02:50:22;2.70;;;2.50;;
53313;SDS011;39202;51.468;7.146;2022-12-18T02:55:34;2.70;;;2.50;;
53313;SDS011;39202;51.468;7.146;2022-12-18T03:00:48;2.60;;;2.40;;
53313;SDS011;39202;51.468;7.146;2022-12-18T03:05:58;2.30;;;2.20;;
53313;SDS011;39202;51.468;7.146;2022-12-18T03:11:06;2.65;;;2.45;;
53313;SDS011;39202;51.468;7.146;2022-12-18T03:16:12;2.17;;;2.08;;
53313;SDS011;39202;51.468;7.146;2022-12-18T03:21:19;2.72;;;2.53;;
53313;SDS011;39202;51.468;7.146;2022-12-18T03:26:27;2.30;;;2.20;;
53313;SDS011;39202;51.468;7.146;2022-12-18T03:31:31;2.63;;;2.42;;
53313;SDS011;39202;51.468;7.146;2022-12-18T03:36:38;2.38;;;2.28;;
53313;SDS011;39202;51.468;7.146;2022-12-18T03:41:42;2.50;;;2.35;;
53313;SDS011;39202;51.468;7.146;2022-12-18T03:46:51;2.60;;;2.40;;
53313;SDS011;39202;51.468;7.146;2022-12-18T03:51:59;2.28;;;2.17;;
53313;SDS011;39202;51.468;7.146;2022-12-18T03:57:06;2.40;;;2.28;;
53313;SDS011;39202;51.468;7.146;2022-12-18T04:02:11;2.35;;;2.25;;
53313;SDS011;39202;51.468;7.146;2022-12-18T04:07:13;2.25;;;2.15;;
53313;SDS011;39202;51.468;7.146;2022-12-18T04:12:17;2.47;;;2.28;;
53313;SDS011;39202;51.468;7.146;2022-12-18T04:17:20;2.22;;;2.13;;
53313;SDS011;39202;51.468;7.146;2022-12-18T04:22:22;2.15;;;2.05;;
53313;SDS011;39202;51.468;7.146;2022-12-18T04:27:24;2.45;;;2.25;;
53313;SDS011;39202;51.468;7.146;2022-12-18T04:32:27;2.30;;;2.10;;
53313;SDS011;39202;51.468;7.146;2022-12-18T04:37:28;2.10;;;2.00;;
53313;SDS011;39202;51.468;7.146;2022-12-18T04:42:30;2.30;;;2.10;;
53313;SDS011;39202;51.468;7.146;2022-12-18T04:47:33;2.30;;;2.20;;
53313;SDS011;39202;51.468;7.146;2022-12-18T04:52:35;2.15;;;2.05;;
53313;SDS011;39202;51.468;7.146;2022-12-18T04:57:37;2.10;;;2.00;;
53313;SDS011;39202;51.468;7.146;2022-12-18T05:02:40;2.10;;;2.00;;
53313;SDS011;39202;51.468;7.146;2022-12-18T05:07:41;2.25;;;2.15;;
53313;SDS011;39202;51.468;7.146;2022-12-18T05:12:43;2.33;;;2.22;;
53313;SDS011;39202;51.468;7.146;2022-12-18T05:18:00;2.20;;;2.10;;
53313;SDS011;39202;51.468;7.146;2022-12-18T05:23:02;2.25;;;2.15;;
53313;SDS011;39202;51.468;7.146;2022-12-18T05:28:04;2.00;;;1.90;;
53313;SDS011;39202;51.468;7.146;2022-12-18T05:33:07;2.10;;;2.00;;
53313;SDS011;39202;51.468;7.146;2022-12-18T05:38:09;1.95;;;1.85;;
53313;SDS011;39202;51.468;7.146;2022-12-18T05:43:11;1.98;;;1.88;;
53313;SDS011;39202;51.468;7.146;2022-12-18T05:48:15;1.90;;;1.80;;
53313;SDS011;39202;51.468;7.146;2022-12-18T05:53:18;2.10;;;2.00;;
53313;SDS011;39202;51.468;7.146;2022-12-18T05:58:21;2.00;;;1.90;;
53313;SDS011;39202;51.468;7.146;2022-12-18T06:03:24;2.10;;;2.00;;
53313;SDS011;39202;51.468;7.146;2022-12-18T06:08:25;1.85;;;1.75;;
53313;SDS011;39202;51.468;7.146;2022-12-18T06:13:27;1.90;;;1.80;;
53313;SDS011;39202;51.468;7.146;2022-12-18T06:18:30;2.00;;;1.90;;
53313;SDS011;39202;51.468;7.146;2022-12-18T06:23:32;1.98;;;1.88;;
53313;SDS011;39202;51.468;7.146;2022-12-18T06:28:34;1.98;;;1.88;;
53313;SDS011;39202;51.468;7.146;2022-12-18T06:33:37;2.00;;;1.90;;
53313;SDS011;39202;51.468;7.146;2022-12-18T06:38:40;1.90;;;1.80;;
53313;SDS011;39202;51.468;7.146;2022-12-18T06:43:43;1.80;;;1.70;;
53313;SDS011;39202;51.468;7.146;2022-12-18T06:48:50;1.90;;;1.80;;
53313;SDS011;39202;51.468;7.146;2022-12-18T06:53:51;1.92;;;1.83;;
53313;SDS011;39202;51.468;7.146;2022-12-18T06:58:53;1.80;;;1.70;;
53313;SDS011;39202;51.468;7.146;2022-12-18T07:03:56;1.70;;;1.60;;
53313;SDS011;39202;51.468;7.146;2022-12-18T07:08:59;1.73;;;1.63;;
53313;SDS011;39202;51.468;7.146;2022-12-18T07:14:00;1.90;;;1.80;;
53313;SDS011;39202;51.468;7.146;2022-12-18T07:19:03;1.77;;;1.67;;
53313;SDS011;39202;51.468;7.146;2022-12-18T07:24:05;1.77;;;1.67;;
53313;SDS011;39202;51.468;7.146;2022-12-18T07:29:08;1.83;;;1.73;;
53313;SDS011;39202;51.468;7.146;2022-12-18T07:34:11;1.83;;;1.73;;
53313;SDS011;39202;51.468;7.146;2022-12-18T07:39:13;1.80;;;1.70;;
53313;SDS011;39202;51.468;7.146;2022-12-18T07:44:15;1.42;;;1.40;;
53313;SDS011;39202;51.468;7.146;2022-12-18T07:49:18;1.67;;;1.58;;
53313;SDS011;39202;51.468;7.146;2022-12-18T07:54:20;1.63;;;1.58;;
53313;SDS011;39202;51.468;7.146;2022-12-18T07:59:21;1.40;;;1.40;;
53313;SDS011;39202;51.468;7.146;2022-12-18T08:04:24;1.63;;;1.52;;
53313;SDS011;39202;51.468;7.146;2022-12-18T08:09:26;1.75;;;1.67;;
53313;SDS011;39202;51.468;7.146;2022-12-18T08:14:28;1.65;;;1.55;;
53313;SDS011;39202;51.468;7.146;2022-12-18T08:19:31;1.60;;;1.50;;
53313;SDS011;39202;51.468;7.146;2022-12-18T08:24:33;1.67;;;1.58;;
53313;SDS011;39202;51.468;7.146;2022-12-18T08:29:34;1.65;;;1.60;;
53313;SDS011;39202;51.468;7.146;2022-12-18T08:34:37;1.63;;;1.52;;
53313;SDS011;39202;51.468;7.146;2022-12-18T08:39:39;1.55;;;1.45;;
53313;SDS011;39202;51.468;7.146;2022-12-18T08:44:41;1.50;;;1.50;;
53313;SDS011;39202;51.468;7.146;2022-12-18T08:49:44;1.50;;;1.50;;
53313;SDS011;39202;51.468;7.146;2022-12-18T08:54:46;1.60;;;1.50;;
53313;SDS011;39202;51.468;7.146;2022-12-18T08:59:48;1.55;;;1.48;;
53313;SDS011;39202;51.468;7.146;2022-12-18T09:04:51;1.55;;;1.45;;
53313;SDS011;39202;51.468;7.146;2022-12-18T09:09:52;1.75;;;1.65;;
53313;SDS011;39202;51.468;7.146;2022-12-18T09:14:54;1.50;;;1.50;;
53313;SDS011;39202;51.468;7.146;2022-12-18T09:19:58;1.63;;;1.52;;
53313;SDS011;39202;51.468;7.146;2022-12-18T09:25:00;1.33;;;1.33;;
53313;SDS011;39202;51.468;7.146;2022-12-18T09:30:02;1.27;;;1.27;;
53313;SDS011;39202;51.468;7.146;2022-12-18T09:35:06;1.30;;;1.30;;
53313;SDS011;39202;51.468;7.146;2022-12-18T09:40:12;1.42;;;1.40;;
53313;SDS011;39202;51.468;7.146;2022-12-18T09:45:15;1.55;;;1.45;;
53313;SDS011;39202;51.468;7.146;2022-12-18T09:50:22;1.50;;;1.50;;
53313;SDS011;39202;51.468;7.146;2022-12-18T09:55:29;1.20;;;1.20;;
53313;SDS011;39202;51.468;7.146;2022-12-18T10:00:34;1.40;;;1.40;;
53313;SDS011;39202;51.468;7.146;2022-12-18T10:05:39;1.42;;;1.42;;
53313;SDS011;39202;51.468;7.146;2022-12-18T10:10:48;1.42;;;1.38;;
53313;SDS011;39202;51.468;7.146;2022-12-18T10:15:59;1.30;;;1.30;;
53313;SDS011;39202;51.468;7.146;2022-12-18T10:21:11;1.50;;;1.42;;
53313;SDS011;39202;51.468;7.146;2022-12-18T10:26:17;1.40;;;1.40;;
53313;SDS011;39202;51.468;7.146;2022-12-18T10:31:21;1.38;;;1.38;;
53313;SDS011;39202;51.468;7.146;2022-12-18T10:36:25;1.27;;;1.27;;
53313;SDS011;39202;51.468;7.146;2022-12-18T10:41:27;1.25;;;1.25;;
53313;SDS011;39202;51.468;7.146;2022-12-18T10:46:30;1.20;;;1.20;;
53313;SDS011;39202;51.468;7.146;2022-12-18T10:51:34;1.75;;;1.65;;
53313;SDS011;39202;51.468;7.146;2022-12-18T10:56:38;1.50;;;1.40;;
53313;SDS011;39202;51.468;7.146;2022-12-18T11:01:50;1.65;;;1.55;;
53313;SDS011;39202;51.468;7.146;2022-12-18T11:06:57;1.20;;;1.20;;
53313;SDS011;39202;51.468;7.146;2022-12-18T11:12:01;1.40;;;1.40;;
53313;SDS011;39202;51.468;7.146;2022-12-18T11:17:16;1.25;;;1.25;;
53313;SDS011;39202;51.468;7.146;2022-12-18T11:22:22;1.23;;;1.23;;
53313;SDS011;39202;51.468;7.146;2022-12-18T11:27:26;1.20;;;1.20;;
53313;SDS011;39202;51.468;7.146;2022-12-18T11:32:33;1.40;;;1.30;;
53313;SDS011;39202;51.468;7.146;2022-12-18T11:37:38;1.10;;;1.10;;
53313;SDS011;39202;51.468;7.146;2022-12-18T11:42:45;1.40;;;1.40;;
53313;SDS011;39202;51.468;7.146;2022-12-18T11:47:52;1.20;;;1.20;;
53313;SDS011;39202;51.468;7.146;2022-12-18T11:53:00;1.33;;;1.33;;
53313;SDS011;39202;51.468;7.146;2022-12-18T11:58:04;1.38;;;1.35;;
53313;SDS011;39202;51.468;7.146;2022-12-18T12:03:20;1.30;;;1.30;;
53313;SDS011;39202;51.468;7.146;2022-12-18T12:08:32;1.08;;;1.08;;
53313;SDS011;39202;51.468;7.146;2022-12-18T12:13:47;1.30;;;1.30;;
53313;SDS011;39202;51.468;7.146;2022-12-18T12:19:08;1.13;;;1.13;;
53313;SDS011;39202;51.468;7.146;2022-12-18T12:24:26;1.20;;;1.20;;
53313;SDS011;39202;51.468;7.146;2022-12-18T12:29:41;1.48;;;1.38;;
53313;SDS011;39202;51.468;7.146;2022-12-18T12:34:54;1.33;;;1.23;;
53313;SDS011;39202;51.468;7.146;2022-12-18T12:40:07;1.30;;;1.30;;
53313;SDS011;39202;51.468;7.146;2022-12-18T12:45:16;1.20;;;1.20;;
53313;SDS011;39202;51.468;7.146;2022-12-18T12:50:23;1.30;;;1.20;;
53313;SDS011;39202;51.468;7.146;2022-12-18T12:55:28;1.23;;;1.23;;
53313;SDS011;39202;51.468;7.146;2022-12-18T13:00:31;1.30;;;1.20;;
53313;SDS011;39202;51.468;7.146;2022-12-18T13:05:42;1.10;;;1.10;;
53313;SDS011;39202;51.468;7.146;2022-12-18T13:10:51;1.20;;;1.20;;
53313;SDS011;39202;51.468;7.146;2022-12-18T13:16:14;1.20;;;1.20;;
53313;SDS011;39202;51.468;7.146;2022-12-18T13:21:21;1.30;;;1.30;;
53313;SDS011;39202;51.468;7.146;2022-12-18T13:26:29;1.10;;;1.10;;
53313;SDS011;39202;51.468;7.146;2022-12-18T13:42:43;1.10;;;1.10;;
53313;SDS011;39202;51.468;7.146;2022-12-18T13:48:03;1.17;;;1.10;;
53313;SDS011;39202;51.468;7.146;2022-12-18T13:53:06;1.13;;;1.13;;
53313;SDS011;39202;51.468;7.146;2022-12-18T13:58:11;1.20;;;1.20;;
53313;SDS011;39202;51.468;7.146;2022-12-18T14:03:17;1.20;;;1.20;;
53313;SDS011;39202;51.468;7.146;2022-12-18T14:08:24;1.30;;;1.30;;
53313;SDS011;39202;51.468;7.146;2022-12-18T14:13:35;1.25;;;1.25;;
53313;SDS011;39202;51.468;7.146;2022-12-18T14:18:41;1.20;;;1.20;;
53313;SDS011;39202;51.468;7.146;2022-12-18T14:23:46;1.20;;;1.20;;
53313;SDS011;39202;51.468;7.146;2022-12-18T14:28:49;1.05;;;1.05;;
53313;SDS011;39202;51.468;7.146;2022-12-18T14:33:51;1.20;;;1.20;;
53313;SDS011;39202;51.468;7.146;2022-12-18T14:38:54;1.40;;;1.27;;
53313;SDS011;39202;51.468;7.146;2022-12-18T14:44:04;1.02;;;1.02;;
53313;SDS011;39202;51.468;7.146;2022-12-18T14:49:17;0.95;;;0.95;;
53313;SDS011;39202;51.468;7.146;2022-12-18T14:54:23;1.10;;;1.10;;
53313;SDS011;39202;51.468;7.146;2022-12-18T14:59:28;1.20;;;1.20;;
53313;SDS011;39202;51.468;7.146;2022-12-18T15:04:31;0.98;;;0.98;;
53313;SDS011;39202;51.468;7.146;2022-12-18T15:09:35;1.23;;;1.23;;
53313;SDS011;39202;51.468;7.146;2022-12-18T15:14:42;1.30;;;1.20;;
53313;SDS011;39202;51.468;7.146;2022-12-18T15:19:44;1.17;;;1.17;;
53313;SDS011;39202;51.468;7.146;2022-12-18T15:24:46;1.30;;;1.20;;
53313;SDS011;39202;51.468;7.146;2022-12-18T15:30:00;1.15;;;1.15;;
53313;SDS011;39202;51.468;7.146;2022-12-18T15:35:07;1.00;;;1.00;;
53313;SDS011;39202;51.468;7.146;2022-12-18T15:40:15;1.20;;;1.20;;
53313;SDS011;39202;51.468;7.146;2022-12-18T15:45:19;1.15;;;1.13;;
53313;SDS011;39202;51.468;7.146;2022-12-18T15:50:21;1.10;;;1.10;;
53313;SDS011;39202;51.468;7.146;2022-12-18T15:55:23;1.20;;;1.20;;
53313;SDS011;39202;51.468;7.146;2022-12-18T16:00:43;1.00;;;1.00;;
53313;SDS011;39202;51.468;7.146;2022-12-18T16:05:45;1.00;;;1.00;;
53313;SDS011;39202;51.468;7.146;2022-12-18T16:10:47;0.90;;;0.90;;
53313;SDS011;39202;51.468;7.146;2022-12-18T16:15:50;1.17;;;1.17;;
53313;SDS011;39202;51.468;7.146;2022-12-18T16:20:51;1.00;;;1.00;;
53313;SDS011;39202;51.468;7.146;2022-12-18T16:25:53;0.90;;;0.90;;
53313;SDS011;39202;51.468;7.146;2022-12-18T16:30:56;1.08;;;1.08;;
53313;SDS011;39202;51.468;7.146;2022-12-18T16:35:58;0.98;;;0.98;;
53313;SDS011;39202;51.468;7.146;2022-12-18T16:41:00;1.15;;;1.10;;
53313;SDS011;39202;51.468;7.146;2022-12-18T16:46:20;0.90;;;0.90;;
53313;SDS011;39202;51.468;7.146;2022-12-18T16:51:22;1.00;;;1.00;;
53313;SDS011;39202;51.468;7.146;2022-12-18T16:56:24;1.20;;;1.20;;
53313;SDS011;39202;51.468;7.146;2022-12-18T17:01:28;1.02;;;1.02;;
53313;SDS011;39202;51.468;7.146;2022-12-18T17:06:31;1.00;;;1.00;;
53313;SDS011;39202;51.468;7.146;2022-12-18T17:11:34;1.10;;;1.05;;
53313;SDS011;39202;51.468;7.146;2022-12-18T17:16:38;1.13;;;1.13;;
53313;SDS011;39202;51.468;7.146;2022-12-18T17:21:41;1.08;;;1.08;;
53313;SDS011;39202;51.468;7.146;2022-12-18T17:26:43;1.23;;;1.23;;
53313;SDS011;39202;51.468;7.146;2022-12-18T17:31:47;1.10;;;1.10;;
53313;SDS011;39202;51.468;7.146;2022-12-18T17:36:49;1.27;;;1.27;;
53313;SDS011;39202;51.468;7.146;2022-12-18T17:41:50;1.10;;;1.10;;
53313;SDS011;39202;51.468;7.146;2022-12-18T17:46:53;1.13;;;1.10;;
53313;SDS011;39202;51.468;7.146;2022-12-18T17:51:55;1.10;;;1.10;;
53313;SDS011;39202;51.468;7.146;2022-12-18T17:56:57;1.17;;;1.15;;
53313;SDS011;39202;51.468;7.146;2022-12-18T18:02:00;1.02;;;1.02;;
53313;SDS011;39202;51.468;7.146;2022-12-18T18:07:02;1.00;;;1.00;;
53313;SDS011;39202;51.468;7.146;2022-12-18T18:12:04;1.30;;;1.20;;
53313;SDS011;39202;51.468;7.146;2022-12-18T18:17:24;1.17;;;1.13;;
53313;SDS011;39202;51.468;7.146;2022-12-18T18:22:26;1.10;;;1.10;;
53313;SDS011;39202;51.468;7.146;2022-12-18T18:27:28;1.10;;;1.10;;
53313;SDS011;39202;51.468;7.146;2022-12-18T18:32:32;1.10;;;1.10;;
53313;SDS011;39202;51.468;7.146;2022-12-18T18:37:38;1.00;;;1.00;;
53313;SDS011;39202;51.468;7.146;2022-12-18T18:42:40;1.00;;;1.00;;
53313;SDS011;39202;51.468;7.146;2022-12-18T18:47:43;1.23;;;1.20;;
53313;SDS011;39202;51.468;7.146;2022-12-18T18:52:45;1.02;;;1.02;;
53313;SDS011;39202;51.468;7.146;2022-12-18T18:57:46;1.42;;;1.20;;
53313;SDS011;39202;51.468;7.146;2022-12-18T19:02:49;1.13;;;1.13;;
53313;SDS011;39202;51.468;7.146;2022-12-18T19:07:51;1.15;;;1.10;;
53313;SDS011;39202;51.468;7.146;2022-12-18T19:12:53;1.00;;;1.00;;
53313;SDS011;39202;51.468;7.146;2022-12-18T19:18:13;1.02;;;1.02;;
53313;SDS011;39202;51.468;7.146;2022-12-18T19:23:15;1.10;;;1.10;;
53313;SDS011;39202;51.468;7.146;2022-12-18T19:28:17;1.08;;;1.08;;
53313;SDS011;39202;51.468;7.146;2022-12-18T19:33:20;1.33;;;1.30;;
53313;SDS011;39202;51.468;7.146;2022-12-18T19:38:24;1.00;;;1.00;;
53313;SDS011;39202;51.468;7.146;2022-12-18T19:43:26;1.30;;;1.30;;
53313;SDS011;39202;51.468;7.146;2022-12-18T19:48:29;1.08;;;1.08;;
53313;SDS011;39202;51.468;7.146;2022-12-18T19:53:30;1.15;;;1.15;;
53313;SDS011;39202;51.468;7.146;2022-12-18T19:58:32;1.10;;;1.10;;
53313;SDS011;39202;51.468;7.146;2022-12-18T20:03:36;0.95;;;0.95;;
53313;SDS011;39202;51.468;7.146;2022-12-18T20:08:38;1.15;;;1.15;;
53313;SDS011;39202;51.468;7.146;2022-12-18T20:13:40;1.10;;;1.10;;
53313;SDS011;39202;51.468;7.146;2022-12-18T20:18:43;1.13;;;1.13;;
53313;SDS011;39202;51.468;7.146;2022-12-18T20:23:45;1.10;;;1.10;;
53313;SDS011;39202;51.468;7.146;2022-12-18T20:28:46;1.10;;;1.10;;
53313;SDS011;39202;51.468;7.146;2022-12-18T20:33:49;1.10;;;1.10;;
53313;SDS011;39202;51.468;7.146;2022-12-18T20:38:51;0.90;;;0.90;;
53313;SDS011;39202;51.468;7.146;2022-12-18T20:43:55;1.00;;;1.00;;
53313;SDS011;39202;51.468;7.146;2022-12-18T20:48:58;1.35;;;1.30;;
53313;SDS011;39202;51.468;7.146;2022-12-18T20:54:00;1.23;;;1.17;;
53313;SDS011;39202;51.468;7.146;2022-12-18T20:59:02;1.20;;;1.20;;
53313;SDS011;39202;51.468;7.146;2022-12-18T21:04:05;1.08;;;1.08;;
53313;SDS011;39202;51.468;7.146;2022-12-18T21:09:06;1.10;;;1.10;;
53313;SDS011;39202;51.468;7.146;2022-12-18T21:14:09;1.20;;;1.20;;
53313;SDS011;39202;51.468;7.146;2022-12-18T21:19:14;1.10;;;1.10;;
53313;SDS011;39202;51.468;7.146;2022-12-18T21:24:17;1.20;;;1.20;;
53313;SDS011;39202;51.468;7.146;2022-12-18T21:29:20;0.90;;;0.90;;
53313;SDS011;39202;51.468;7.146;2022-12-18T21:34:24;1.13;;;1.13;;
53313;SDS011;39202;51.468;7.146;2022-12-18T21:39:28;1.50;;;1.40;;
53313;SDS011;39202;51.468;7.146;2022-12-18T21:44:30;1.50;;;1.40;;
53313;SDS011;39202;51.468;7.146;2022-12-18T21:49:33;1.20;;;1.20;;
53313;SDS011;39202;51.468;7.146;2022-12-18T21:54:35;1.27;;;1.20;;
53313;SDS011;39202;51.468;7.146;2022-12-18T21:59:37;1.30;;;1.20;;
53313;SDS011;39202;51.468;7.146;2022-12-18T22:04:42;1.10;;;1.10;;
53313;SDS011;39202;51.468;7.146;2022-12-18T22:09:45;1.38;;;1.30;;
53313;SDS011;39202;51.468;7.146;2022-12-18T22:14:51;1.30;;;1.20;;
53313;SDS011;39202;51.468;7.146;2022-12-18T22:19:54;1.30;;;1.30;;
53313;SDS011;39202;51.468;7.146;2022-12-18T22:24:56;1.17;;;1.17;;
53313;SDS011;39202;51.468;7.146;2022-12-18T22:29:58;1.10;;;1.10;;
53313;SDS011;39202;51.468;7.146;2022-12-18T22:35:08;1.38;;;1.30;;
53313;SDS011;39202;51.468;7.146;2022-12-18T22:40:10;1.20;;;1.20;;
53313;SDS011;39202;51.468;7.146;2022-12-18T22:45:19;1.20;;;1.20;;
53313;SDS011;39202;51.468;7.146;2022-12-18T22:50:22;1.20;;;1.20;;
53313;SDS011;39202;51.468;7.146;2022-12-18T22:55:24;1.00;;;1.00;;
53313;SDS011;39202;51.468;7.146;2022-12-18T23:00:26;1.13;;;1.13;;
53313;SDS011;39202;51.468;7.146;2022-12-18T23:05:29;1.05;;;1.05;;
53313;SDS011;39202;51.468;7.146;2022-12-18T23:10:31;1.20;;;1.20;;
53313;SDS011;39202;51.468;7.146;2022-12-18T23:15:33;1.10;;;1.10;;
53313;SDS011;39202;51.468;7.146;2022-12-18T23:20:36;1.48;;;1.38;;
53313;SDS011;39202;51.468;7.146;2022-12-18T23:25:37;1.50;;;1.40;;
53313;SDS011;39202;51.468;7.146;2022-12-18T23:30:39;1.20;;;1.20;;
53313;SDS011;39202;51.468;7.146;2022-12-18T23:35:42;1.40;;;1.30;;
53313;SDS011;39202;51.468;7.146;2022-12-18T23:40:44;1.42;;;1.40;;
53313;SDS011;39202;51.468;7.146;2022-12-18T23:45:45;1.52;;;1.42;;
53313;SDS011;39202;51.468;7.146;2022-12-18T23:50:48;1.30;;;1.30;;
53313;SDS011;39202;51.468;7.146;2022-12-18T23:55:50;1.60;;;1.50;;
